• Join FlightAware (Why Join?)
  • Login
  • US Flag 
02:40PM EDT


 

Airport Tracker/Info


-or-


 

Live Flight TrackerFlight Track Log ✈ FLG3729 ✈ 27-Jun-2013 ✈ KALB - KDTW

Flight Track Log - Related Links

Times and Time Zones

All times are in EDT time to prevent confusion due to time zone crossing. See the FLG3729 flight status page for this flight to view local times or setup timezone preferences in your user account.

Time Position Orientation Groundspeed Altitude Reporting Facility
EDT Latitude Longitude Course Direction KTS MPH feet Rate Location/Type
06:00AM 42.7714 -73.8061 304° West 163 188 1,200  Level Boston Center
06:00AM 42.7986 -73.8153 346° North 172 198 2,200 2,100 Climbing Boston Center
06:02AM 42.8786 -73.9164 317° Northwest 214 246 6,400 2,160 Climbing Boston Center
06:03AM 42.8268 -74.2875 281° West  Level FlightAware Approximate
06:03AM 42.8919 -74.0072 281° West 261 300 8,400  Level Boston Center
06:04AM 42.8465 -74.4122 283° West  Level FlightAware Approximate
06:04AM 42.8944 -74.1178 272° West 261 300 10,500  Level Boston Center
06:05AM 42.8680 -74.5361 304° West  Level FlightAware Approximate
06:05AM 42.8969 -74.2286 272° West 300 345 11,400  Level Boston Center
06:06AM 42.9008 -74.3703 272° West 336 387 13,000 1,440 Climbing Boston Center
06:07AM 42.9031 -74.4867 272° West 345 397 14,300 1,320 Climbing Boston Center
06:08AM 42.9067 -74.6314 272° West 345 397 15,700 1,200 Climbing Boston Center
06:09AM 42.9103 -74.7589 272° West 359 413 16,800 1,080 Climbing Boston Center
06:10AM 42.9136 -74.8981 272° West 364 419 17,900 900 Climbing Boston Center
06:11AM 42.9167 -75.0400 272° West 369 425 18,900 900 Climbing Boston Center
06:12AM 42.9192 -75.2075 271° West 369 425 20,000 900 Climbing Boston Center
06:13AM 42.9217 -75.3522 271° West 374 430 20,700 540 Climbing Boston Center
06:14AM 42.9242 -75.4969 271° West 384 442 21,100 480 Climbing Boston Center
06:15AM 42.9264 -75.6472 271° West 384 442 21,700 540 Climbing Boston Center
06:16AM 42.9303 -75.7978 272° West 389 448 22,200 480 Climbing Boston Center
06:18AM 42.9319 -76.0994 271° West 392 451 23,200 480 Climbing Cleveland Center
06:19AM 42.9336 -76.2525 271° West 397 457 23,700 480 Climbing Cleveland Center
06:20AM 42.9350 -76.4083 271° West 407 468 24,200 480 Climbing Cleveland Center
06:21AM 42.9342 -76.5617 270° West 407 468 24,700 480 Climbing Cleveland Center
06:22AM 42.9353 -76.7147 271° West 407 468 25,200 480 Climbing Cleveland Center
06:23AM 42.9358 -76.8539 270° West 407 468 25,700 420 Climbing Cleveland Center
06:24AM 42.9303 -77.0072 267° West 407 468 26,100 420 Climbing Cleveland Center
06:25AM 42.9244 -77.1608 267° West 407 468 26,600 540 Climbing Cleveland Center
06:26AM 42.9189 -77.3311 268° West 407 468 27,200 540 Climbing Cleveland Center
06:27AM 42.9106 -77.4847 266° West 407 468 27,700 360 Climbing Cleveland Center
06:28AM 42.9061 -77.6353 268° West 407 468 28,000 120 Climbing Cleveland Center
06:29AM 42.8975 -77.7944 266° West 407 468 28,000  Level Cleveland Center
06:30AM 42.8889 -77.9506 266° West 407 468 28,000  Level Cleveland Center
06:31AM 42.8819 -78.1097 267° West 412 474 28,000  Level Cleveland Center
06:32AM 42.8747 -78.2686 267° West 422 486 28,000  Level Cleveland Center
06:33AM 42.8653 -78.4303 265° West 427 491 28,000  Level Cleveland Center
06:34AM 42.8578 -78.5892 266° West 427 491 28,000  Level Cleveland Center
06:35AM 42.8500 -78.7539 266° West 432 497 28,000  Level Cleveland Center
06:36AM 42.8378 -78.9128 264° West 427 491 28,000  Level Cleveland Center
06:37AM 42.8297 -79.0772 266° West 427 491 28,000  Level Cleveland Center
06:38AM 42.8192 -79.2417 265° West 427 491 28,000  Level Cleveland Center
06:39AM 42.8128 -79.4031 267° West 433 498 28,000  Level Cleveland Center
06:40AM 42.8017 -79.5617 265° West 433 498 28,000  Level Cleveland Center
06:41AM 42.7925 -79.7203 266° West 433 498 28,000  Level Cleveland Center
06:42AM 42.7811 -79.8844 265° West 433 498 28,000  Level Cleveland Center
06:43AM 42.7675 -80.0431 263° West 428 493 28,000  Level Cleveland Center
06:44AM 42.7556 -80.2072 264° West 428 493 28,000  Level Cleveland Center
06:45AM 42.7456 -80.3628 265° West 420 483 28,000  Level Cleveland Center
06:46AM 42.7333 -80.5267 264° West 437 503 28,000  Level Cleveland Center
06:47AM 42.7206 -80.6850 264° West 443 510 28,000  Level Cleveland Center
06:48AM 42.7078 -80.8489 264° West 443 510 28,000 -2,040 Level Cleveland Center
06:49AM 42.6908 -81.0097 262° West 440 506 24,000 -1,560 Descending Cleveland Center
06:50AM 42.6733 -81.1792 262° West 450 518 24,900 -360 Climbing Cleveland Center
06:51AM 42.6556 -81.3425 262° West 450 518 23,300 -1,620 Descending Cleveland Center
06:52AM 42.6358 -81.5033 261° West 445 512 21,700 -1,560 Descending Cleveland Center
06:53AM 42.6178 -81.6469 260° West 431 496 20,300 -1,500 Descending Cleveland Center
06:54AM 42.5975 -81.8017 260° West 426 490 18,800 -1,620 Descending Cleveland Center
06:55AM 42.5792 -81.9536 261° West 426 490 17,100 -1,680 Descending Cleveland Center
06:56AM 42.5606 -82.1081 261° West 426 490 15,500 -1,560 Descending Cleveland Center
06:57AM 42.5419 -82.2542 260° West 414 476 14,000 -1,560 Descending Cleveland Center
06:58AM 42.5272 -82.4003 262° West 400 460 12,700 -1,080 Descending Cleveland Center
06:59AM 42.5083 -82.5378 259° West 322 371 12,000 -840 Descending Cleveland Center
07:00AM 42.4664 -82.6661 246° West 300 345 10,900 -1,200 Descending Cleveland Center
07:01AM 42.4333 -82.7550 243° Southwest 300 345 9,500 -1,260 Descending Cleveland Center
07:02AM 42.4064 -82.8608 251° West 291 335 8,500 -1,200 Descending Cleveland Center
07:03AM 42.3983 -82.9506 263° West 283 326 7,200 -720 Descending Cleveland Center
07:04AM 42.4069 -83.0408 277° West 251 289 7,100 -180 Descending Cleveland Center
07:05AM 42.4344 -83.1181 296° West 246 283 6,900 -900 Descending Cleveland Center
07:06AM 42.4286 -83.1853 263° West 221 254 5,400 -1,380 Descending Cleveland Center
07:07AM 42.3778 -83.2197 207° Southwest 170 196 4,200 -1,200 Descending Cleveland Center